createdAt,value
2023-04-30T00:00:48.951Z,211.42
2023-04-30T00:01:49.027Z,209.36
2023-04-30T00:02:49.068Z,209.43
2023-04-30T00:03:49.149Z,207.77
2023-04-30T00:04:49.053Z,209.54
2023-04-30T00:05:49.066Z,207.05
2023-04-30T00:06:49.143Z,206.15
2023-04-30T00:07:49.141Z,207.68
2023-04-30T00:08:49.154Z,206.06
2023-04-30T00:09:49.166Z,207.05
2023-04-30T00:10:49.168Z,207.20
2023-04-30T00:11:49.224Z,207.51
2023-04-30T00:12:49.232Z,206.10
2023-04-30T00:13:49.295Z,205.35
2023-04-30T00:14:49.356Z,207.28
2023-04-30T00:15:49.387Z,206.29
2023-04-30T00:16:49.478Z,205.47
2023-04-30T00:17:49.454Z,205.16
2023-04-30T00:18:49.458Z,205.12
2023-04-30T00:19:49.507Z,203.40
2023-04-30T00:20:49.528Z,204.99
2023-04-30T00:21:49.535Z,205.83
2023-04-30T00:22:49.559Z,205.75
2023-04-30T00:23:49.613Z,205.86
2023-04-30T00:24:49.613Z,204.39
2023-04-30T00:25:49.635Z,203.08
2023-04-30T00:26:49.638Z,203.10
2023-04-30T00:27:49.662Z,203.07
2023-04-30T00:28:49.675Z,202.45
2023-04-30T00:29:49.663Z,203.13
2023-04-30T00:30:49.713Z,205.30
2023-04-30T00:31:49.720Z,202.06
2023-04-30T00:32:49.724Z,204.36
2023-04-30T00:33:49.765Z,204.67
2023-04-30T00:34:49.765Z,204.54
2023-04-30T00:35:49.800Z,203.35
2023-04-30T00:36:49.826Z,206.82
2023-04-30T00:37:49.852Z,206.65
2023-04-30T00:38:49.890Z,205.71
2023-04-30T00:39:49.912Z,206.78
2023-04-30T00:40:49.912Z,205.37
2023-04-30T00:41:49.954Z,207.56
2023-04-30T00:42:49.975Z,204.88
2023-04-30T00:43:49.994Z,206.10
2023-04-30T00:44:50.001Z,207.27
2023-04-30T00:45:50.073Z,206.03
2023-04-30T00:46:50.009Z,208.47
2023-04-30T00:47:50.077Z,206.26
2023-04-30T00:48:50.081Z,206.24
2023-04-30T00:49:50.072Z,207.41
2023-04-30T00:50:50.066Z,207.72
2023-04-30T00:51:50.088Z,207.81
2023-04-30T00:52:50.082Z,209.26
2023-04-30T00:53:50.083Z,209.15
2023-04-30T00:54:50.105Z,209.80
2023-04-30T00:55:50.107Z,210.51
2023-04-30T00:56:50.112Z,209.71
2023-04-30T00:57:50.145Z,210.18
2023-04-30T00:58:50.103Z,210.92
2023-04-30T00:59:50.107Z,211.00
2023-04-30T01:00:50.157Z,214.15
2023-04-30T01:01:50.218Z,213.88
2023-04-30T01:02:50.281Z,211.91
2023-04-30T01:03:50.325Z,211.14
2023-04-30T01:04:50.208Z,211.58
2023-04-30T01:05:50.183Z,211.18
2023-04-30T01:06:50.194Z,213.33
2023-04-30T01:07:50.191Z,215.85
2023-04-30T01:08:50.248Z,213.87
2023-04-30T01:09:50.260Z,213.52
2023-04-30T01:10:50.240Z,211.10
2023-04-30T01:11:50.240Z,213.61
2023-04-30T01:12:50.242Z,214.09
2023-04-30T01:13:50.244Z,213.20
2023-04-30T01:14:50.247Z,214.95
2023-04-30T01:15:50.323Z,215.39
2023-04-30T01:16:50.259Z,215.17
2023-04-30T01:17:50.294Z,215.39
2023-04-30T01:18:50.391Z,214.41
2023-04-30T01:19:50.288Z,214.35
2023-04-30T01:20:50.320Z,213.54
2023-04-30T01:21:50.299Z,212.66
2023-04-30T01:22:50.342Z,210.67
2023-04-30T01:23:50.325Z,211.67
2023-04-30T01:24:50.352Z,211.74
2023-04-30T01:25:50.338Z,209.70
2023-04-30T01:26:50.372Z,209.56
2023-04-30T01:27:50.408Z,210.90
2023-04-30T01:28:50.372Z,209.62
2023-04-30T01:29:50.365Z,211.39
2023-04-30T01:30:50.380Z,209.82
2023-04-30T01:31:50.505Z,209.05
2023-04-30T01:32:50.500Z,210.98
2023-04-30T01:33:50.359Z,209.94
2023-04-30T01:34:50.385Z,210.43
2023-04-30T01:35:50.359Z,208.67
2023-04-30T01:36:50.361Z,208.74
2023-04-30T01:37:50.380Z,208.93
2023-04-30T01:38:50.373Z,205.63
2023-04-30T01:39:50.399Z,205.34
2023-04-30T01:40:50.371Z,208.23
2023-04-30T01:41:50.374Z,205.39
2023-04-30T01:42:50.410Z,204.62
2023-04-30T01:43:50.416Z,205.00
2023-04-30T01:44:50.420Z,205.97
2023-04-30T01:45:50.411Z,207.01
2023-04-30T01:46:50.385Z,208.74
2023-04-30T01:47:50.424Z,207.72
2023-04-30T01:48:50.438Z,207.37
2023-04-30T01:49:50.400Z,208.36
2023-04-30T01:50:50.413Z,207.77
2023-04-30T01:51:50.407Z,210.32
2023-04-30T01:52:50.444Z,206.49
2023-04-30T01:53:50.526Z,209.88
2023-04-30T01:54:50.432Z,208.08
2023-04-30T01:55:50.438Z,207.88
2023-04-30T01:56:50.436Z,208.09
2023-04-30T01:57:50.426Z,205.96
2023-04-30T01:58:50.467Z,205.21
2023-04-30T01:59:50.460Z,208.37
2023-04-30T02:00:50.450Z,208.77
2023-04-30T02:01:50.488Z,206.74
2023-04-30T02:02:50.573Z,206.92
2023-04-30T02:03:50.623Z,205.96
2023-04-30T02:04:50.474Z,206.32
2023-04-30T02:05:50.472Z,207.23
2023-04-30T02:06:50.455Z,209.15
2023-04-30T02:07:50.461Z,208.19
2023-04-30T02:08:50.477Z,207.80
2023-04-30T02:09:50.476Z,208.53
2023-04-30T02:10:50.515Z,207.40
2023-04-30T02:11:50.490Z,208.31
2023-04-30T02:12:50.503Z,208.80
2023-04-30T02:13:50.521Z,209.09
2023-04-30T02:14:50.488Z,209.88
2023-04-30T02:15:50.554Z,211.96
2023-04-30T02:16:50.578Z,212.33
2023-04-30T02:17:50.585Z,209.13
2023-04-30T02:18:50.570Z,209.96
2023-04-30T02:19:50.563Z,210.16
2023-04-30T02:20:50.564Z,211.25
2023-04-30T02:21:50.559Z,215.11
2023-04-30T02:22:50.559Z,213.33
2023-04-30T02:23:50.649Z,213.10
2023-04-30T02:24:50.578Z,212.67
2023-04-30T02:25:50.579Z,209.92
2023-04-30T02:26:50.581Z,210.26
2023-04-30T02:27:50.572Z,212.06
2023-04-30T02:28:50.575Z,210.62
2023-04-30T02:29:50.566Z,211.63
2023-04-30T02:30:50.597Z,212.02
2023-04-30T02:31:50.614Z,208.64
2023-04-30T02:32:50.609Z,210.80
2023-04-30T02:33:50.590Z,207.69
2023-04-30T02:34:50.637Z,209.70
2023-04-30T02:35:50.604Z,208.47
2023-04-30T02:36:50.593Z,209.26
2023-04-30T02:37:50.591Z,211.18
2023-04-30T02:38:50.633Z,213.18
2023-04-30T02:39:50.631Z,209.69
2023-04-30T02:40:50.605Z,211.01
2023-04-30T02:41:50.612Z,210.28
2023-04-30T02:42:50.599Z,211.29
2023-04-30T02:43:50.747Z,211.45
2023-04-30T02:44:50.596Z,209.60
2023-04-30T02:45:50.693Z,210.79
2023-04-30T02:46:50.610Z,211.62
2023-04-30T02:47:50.616Z,209.62
2023-04-30T02:48:50.648Z,207.97
2023-04-30T02:49:50.638Z,207.58
2023-04-30T02:50:50.646Z,206.15
2023-04-30T02:51:50.651Z,208.14
2023-04-30T02:52:50.699Z,208.29
2023-04-30T02:53:50.707Z,208.82
2023-04-30T02:54:50.689Z,210.10
2023-04-30T02:55:50.705Z,207.86
2023-04-30T02:56:50.707Z,208.19
2023-04-30T02:57:50.682Z,208.57
2023-04-30T02:58:50.727Z,210.20
2023-04-30T02:59:50.781Z,208.63
2023-04-30T03:00:50.816Z,210.45
2023-04-30T03:01:50.810Z,208.96
2023-04-30T03:02:50.915Z,209.55
2023-04-30T03:03:50.814Z,208.53
2023-04-30T03:04:50.806Z,207.66
2023-04-30T03:05:50.812Z,209.47
2023-04-30T03:06:50.821Z,207.13
2023-04-30T03:07:50.837Z,209.46
2023-04-30T03:08:50.873Z,210.84
2023-04-30T03:09:50.796Z,209.29
2023-04-30T03:10:50.822Z,211.29
2023-04-30T03:11:50.832Z,210.78
2023-04-30T03:12:50.835Z,211.18
2023-04-30T03:13:50.839Z,213.72
2023-04-30T03:14:50.846Z,214.82
2023-04-30T03:15:50.917Z,213.35
2023-04-30T03:16:50.859Z,212.36
2023-04-30T03:17:50.860Z,213.10
2023-04-30T03:18:50.866Z,212.99
2023-04-30T03:19:50.851Z,212.42
2023-04-30T03:20:50.870Z,212.39
2023-04-30T03:21:50.897Z,212.79
2023-04-30T03:22:50.878Z,212.86
2023-04-30T03:23:50.896Z,213.72
2023-04-30T03:24:50.888Z,209.37
2023-04-30T03:25:50.919Z,210.19
2023-04-30T03:26:50.895Z,208.39
2023-04-30T03:27:50.914Z,209.10
2023-04-30T03:28:50.938Z,209.60
2023-04-30T03:29:50.929Z,211.35
2023-04-30T03:30:50.905Z,213.03
2023-04-30T03:31:50.940Z,212.89
2023-04-30T03:32:50.945Z,214.15
2023-04-30T03:33:51.003Z,213.87
2023-04-30T03:34:50.957Z,213.96
2023-04-30T03:35:50.952Z,211.79
2023-04-30T03:36:50.978Z,215.58
2023-04-30T03:37:50.968Z,216.55
2023-04-30T03:38:50.957Z,215.93
2023-04-30T03:39:50.954Z,213.93
2023-04-30T03:40:50.963Z,215.88
2023-04-30T03:41:50.956Z,215.24
2023-04-30T03:42:51.524Z,214.07
2023-04-30T03:43:50.961Z,214.73
2023-04-30T03:44:50.994Z,214.12
2023-04-30T03:45:51.014Z,211.32
2023-04-30T03:46:50.967Z,212.43
2023-04-30T03:47:51.021Z,211.89
2023-04-30T03:48:50.980Z,211.49
2023-04-30T03:49:50.975Z,209.76
2023-04-30T03:50:50.990Z,211.25
2023-04-30T03:51:51.022Z,212.78
2023-04-30T03:52:51.006Z,213.69
2023-04-30T03:53:50.989Z,212.92
2023-04-30T03:54:51.038Z,212.51
2023-04-30T03:55:51.019Z,211.29
2023-04-30T03:56:51.031Z,209.73
2023-04-30T03:57:51.030Z,209.26
2023-04-30T03:58:51.059Z,209.20
2023-04-30T03:59:51.044Z,210.33
2023-04-30T04:00:51.044Z,210.16
2023-04-30T04:01:51.090Z,209.53
2023-04-30T04:02:51.075Z,209.41
2023-04-30T04:03:51.100Z,207.04
2023-04-30T04:04:51.063Z,206.41
2023-04-30T04:05:51.037Z,208.53
2023-04-30T04:06:51.076Z,209.25
2023-04-30T04:07:51.085Z,208.35
2023-04-30T04:08:51.063Z,209.76
2023-04-30T04:09:51.076Z,207.97
2023-04-30T04:10:51.067Z,206.98
2023-04-30T04:11:51.748Z,206.15
2023-04-30T04:12:51.081Z,208.85
2023-04-30T04:13:51.068Z,207.81
2023-04-30T04:14:51.112Z,206.84
2023-04-30T04:15:51.096Z,203.25
2023-04-30T04:16:51.075Z,207.25
2023-04-30T04:17:51.136Z,209.30
2023-04-30T04:18:51.121Z,208.46
2023-04-30T04:19:51.120Z,206.65
2023-04-30T04:20:51.127Z,206.48
2023-04-30T04:21:51.150Z,208.90
2023-04-30T04:22:51.137Z,205.24
2023-04-30T04:23:51.154Z,203.46
2023-04-30T04:24:51.136Z,206.90
2023-04-30T04:25:51.153Z,202.67
2023-04-30T04:26:51.161Z,204.94
2023-04-30T04:27:51.139Z,203.79
2023-04-30T04:28:51.175Z,203.02
2023-04-30T04:29:51.153Z,201.89
2023-04-30T04:30:51.156Z,201.37
2023-04-30T04:31:51.294Z,198.75
2023-04-30T04:32:51.174Z,200.01
2023-04-30T04:33:51.197Z,199.44
2023-04-30T04:34:51.191Z,199.37
2023-04-30T04:35:51.179Z,198.69
2023-04-30T04:36:51.177Z,197.87
2023-04-30T04:37:51.218Z,197.94
2023-04-30T04:38:51.182Z,197.05
2023-04-30T04:39:51.216Z,197.56
2023-04-30T04:40:51.215Z,199.67
2023-04-30T04:41:51.194Z,199.82
2023-04-30T04:42:51.224Z,196.48
2023-04-30T04:43:51.228Z,196.89
2023-04-30T04:44:51.187Z,197.38
2023-04-30T04:45:51.222Z,196.62
2023-04-30T04:46:51.312Z,197.34
2023-04-30T04:47:51.226Z,195.81
2023-04-30T04:48:51.248Z,194.22
2023-04-30T04:49:51.191Z,193.37
2023-04-30T04:50:51.211Z,194.02
2023-04-30T04:51:51.237Z,194.02
2023-04-30T04:52:51.219Z,195.43
2023-04-30T04:53:51.230Z,193.88
2023-04-30T04:54:51.246Z,196.06
2023-04-30T04:55:51.215Z,196.03
2023-04-30T04:56:51.247Z,194.61
2023-04-30T04:57:51.250Z,191.66
2023-04-30T04:58:51.261Z,192.34
2023-04-30T04:59:51.265Z,193.14
2023-04-30T05:00:51.297Z,191.42
2023-04-30T05:01:51.286Z,191.84
2023-04-30T05:02:51.340Z,191.62
2023-04-30T05:03:51.416Z,190.16
2023-04-30T05:04:51.290Z,190.56
2023-04-30T05:05:51.299Z,192.97
2023-04-30T05:06:51.279Z,193.00
2023-04-30T05:07:51.320Z,188.41
2023-04-30T05:08:51.304Z,189.55
2023-04-30T05:09:51.296Z,191.84
2023-04-30T05:10:51.289Z,191.13
2023-04-30T05:11:51.260Z,192.59
2023-04-30T05:12:51.381Z,192.15
2023-04-30T05:13:51.318Z,191.03
2023-04-30T05:14:51.316Z,189.55
2023-04-30T05:15:51.352Z,191.58
2023-04-30T05:16:51.323Z,191.93
2023-04-30T05:17:51.308Z,196.00
2023-04-30T05:18:51.344Z,189.27
2023-04-30T05:19:51.348Z,191.75
2023-04-30T05:20:51.337Z,193.73
2023-04-30T05:21:51.346Z,191.69
2023-04-30T05:22:51.351Z,189.80
2023-04-30T05:23:51.347Z,191.54
2023-04-30T05:24:51.333Z,190.71
2023-04-30T05:25:51.329Z,189.59
2023-04-30T05:26:51.329Z,191.56
2023-04-30T05:27:51.372Z,189.24
2023-04-30T05:28:51.374Z,187.11
2023-04-30T05:29:51.354Z,188.37
2023-04-30T05:30:51.379Z,188.04
2023-04-30T05:31:51.415Z,190.64
2023-04-30T05:32:51.442Z,187.02
2023-04-30T05:33:51.388Z,184.90
2023-04-30T05:34:51.379Z,186.99
2023-04-30T05:35:51.401Z,189.34
2023-04-30T05:36:51.419Z,189.83
2023-04-30T05:37:51.421Z,185.59
2023-04-30T05:38:51.421Z,188.70
2023-04-30T05:39:51.422Z,185.31
2023-04-30T05:40:51.428Z,183.87
2023-04-30T05:41:52.858Z,183.77
2023-04-30T05:42:51.426Z,180.69
2023-04-30T05:43:51.441Z,182.02
2023-04-30T05:44:51.440Z,179.09
2023-04-30T05:45:51.507Z,177.46
2023-04-30T05:46:51.424Z,183.06
2023-04-30T05:47:51.512Z,179.77
2023-04-30T05:48:51.475Z,179.24
2023-04-30T05:49:51.465Z,174.42
2023-04-30T05:50:51.455Z,175.19
2023-04-30T05:51:51.477Z,177.53
2023-04-30T05:52:51.471Z,177.46
2023-04-30T05:53:51.704Z,176.12
2023-04-30T05:54:51.509Z,179.05
2023-04-30T05:55:51.509Z,175.69
2023-04-30T05:56:51.522Z,175.69
2023-04-30T05:57:51.542Z,174.98
2023-04-30T05:58:51.529Z,175.58
2023-04-30T05:59:51.567Z,174.21
2023-04-30T06:00:51.546Z,172.73
2023-04-30T06:01:51.597Z,176.43
2023-04-30T06:02:51.592Z,177.72
2023-04-30T06:03:51.567Z,174.53
2023-04-30T06:04:51.603Z,172.80
2023-04-30T06:05:51.565Z,174.57
2023-04-30T06:06:51.609Z,176.04
2023-04-30T06:07:51.575Z,178.15
2023-04-30T06:08:51.603Z,176.11
2023-04-30T06:09:51.640Z,176.28
2023-04-30T06:10:51.567Z,178.73
2023-04-30T06:11:51.603Z,181.37
2023-04-30T06:12:51.591Z,180.91
2023-04-30T06:13:51.625Z,178.73
2023-04-30T06:14:51.635Z,177.48
2023-04-30T06:15:51.591Z,179.02
2023-04-30T06:16:51.706Z,178.06
2023-04-30T06:17:51.637Z,181.59
2023-04-30T06:18:52.977Z,182.86
2023-04-30T06:19:51.678Z,180.71
2023-04-30T06:20:51.633Z,184.54
2023-04-30T06:21:51.647Z,184.18
2023-04-30T06:22:51.661Z,183.42
2023-04-30T06:23:51.691Z,184.32
2023-04-30T06:24:51.676Z,185.75
2023-04-30T06:25:51.646Z,185.44
2023-04-30T06:26:51.660Z,186.15
2023-04-30T06:27:51.701Z,187.08
2023-04-30T06:28:51.652Z,186.57
2023-04-30T06:29:51.762Z,183.55
2023-04-30T06:30:51.633Z,183.83
2023-04-30T06:31:51.756Z,184.53
2023-04-30T06:32:51.665Z,183.11
2023-04-30T06:33:51.665Z,185.13
2023-04-30T06:34:51.691Z,187.47
2023-04-30T06:35:51.671Z,183.85
2023-04-30T06:36:51.702Z,183.42
2023-04-30T06:37:51.670Z,184.47
2023-04-30T06:38:51.695Z,185.21
2023-04-30T06:39:51.693Z,184.50
2023-04-30T06:40:51.743Z,183.17
2023-04-30T06:41:51.701Z,183.32
2023-04-30T06:42:51.841Z,185.52
2023-04-30T06:43:51.717Z,190.51
2023-04-30T06:44:51.673Z,189.11
2023-04-30T06:45:51.786Z,186.65
2023-04-30T06:46:51.710Z,185.75
2023-04-30T06:47:51.771Z,184.44
2023-04-30T06:48:51.729Z,184.40
2023-04-30T06:49:51.752Z,181.74
2023-04-30T06:50:51.727Z,182.08
2023-04-30T06:51:51.755Z,183.98
2023-04-30T06:52:51.703Z,183.52
2023-04-30T06:53:51.718Z,182.10
2023-04-30T06:54:51.718Z,178.53
2023-04-30T06:55:51.742Z,178.33
2023-04-30T06:56:51.736Z,176.37
2023-04-30T06:57:51.735Z,172.58
2023-04-30T06:58:51.757Z,171.26
2023-04-30T06:59:51.800Z,171.43
2023-04-30T07:00:51.770Z,170.13
2023-04-30T07:01:51.791Z,172.85
2023-04-30T07:02:51.841Z,169.13
2023-04-30T07:03:51.810Z,173.90
2023-04-30T07:04:51.724Z,171.57
2023-04-30T07:05:51.756Z,169.60
2023-04-30T07:06:51.732Z,171.60
2023-04-30T07:07:51.701Z,169.04
2023-04-30T07:08:51.728Z,170.14
2023-04-30T07:09:51.890Z,170.47
2023-04-30T07:10:51.755Z,173.06
2023-04-30T07:11:51.755Z,173.88
2023-04-30T07:12:51.770Z,170.24
2023-04-30T07:13:51.790Z,171.50
2023-04-30T07:14:51.778Z,167.35
2023-04-30T07:15:51.871Z,169.04
2023-04-30T07:16:51.791Z,167.50
2023-04-30T07:17:51.866Z,165.51
2023-04-30T07:18:51.814Z,162.27
2023-04-30T07:19:51.861Z,160.74
2023-04-30T07:20:51.847Z,159.92
2023-04-30T07:21:51.867Z,159.78
2023-04-30T07:22:51.892Z,159.34
2023-04-30T07:23:51.898Z,161.12
2023-04-30T07:24:51.919Z,165.34
2023-04-30T07:25:51.896Z,164.56
2023-04-30T07:26:51.896Z,159.53
2023-04-30T07:27:51.911Z,162.79
2023-04-30T07:28:51.958Z,164.39
2023-04-30T07:29:52.057Z,161.91
2023-04-30T07:30:51.952Z,166.18
2023-04-30T07:31:52.021Z,161.67
2023-04-30T07:32:52.110Z,160.27
2023-04-30T07:33:52.065Z,162.06
2023-04-30T07:34:52.052Z,157.26
2023-04-30T07:35:52.077Z,157.51
2023-04-30T07:36:52.138Z,162.41
2023-04-30T07:37:52.209Z,163.23
2023-04-30T07:38:52.244Z,162.73
2023-04-30T07:39:52.332Z,166.34
2023-04-30T07:40:52.306Z,167.62
2023-04-30T07:41:52.351Z,161.73
2023-04-30T07:42:52.383Z,160.30
2023-04-30T07:43:52.409Z,165.95
2023-04-30T07:44:52.435Z,170.81
2023-04-30T07:45:52.480Z,161.50
2023-04-30T07:46:52.516Z,158.25
2023-04-30T07:47:52.592Z,161.25
2023-04-30T07:48:52.617Z,164.81
2023-04-30T07:49:53.037Z,168.03
2023-04-30T07:50:53.139Z,169.95
2023-04-30T07:51:52.690Z,167.46
2023-04-30T07:52:52.726Z,163.45
2023-04-30T07:53:52.752Z,160.60
2023-04-30T07:54:52.812Z,155.14
2023-04-30T07:55:52.872Z,155.03
2023-04-30T07:57:53.008Z,151.86
2023-04-30T07:58:53.014Z,155.48
2023-04-30T07:59:53.253Z,154.41
2023-04-30T08:00:53.093Z,152.99
2023-04-30T08:01:53.222Z,156.56
2023-04-30T08:02:53.403Z,161.89
2023-04-30T08:03:53.325Z,160.86
2023-04-30T08:04:53.339Z,155.89
2023-04-30T08:05:53.396Z,151.60
2023-04-30T08:06:53.404Z,157.84
2023-04-30T08:07:53.467Z,151.40
2023-04-30T08:08:53.550Z,153.11
2023-04-30T08:09:53.744Z,153.17
2023-04-30T08:10:53.638Z,148.56
2023-04-30T08:11:53.693Z,154.81
2023-04-30T08:12:54.337Z,153.79
2023-04-30T08:13:53.795Z,153.98
2023-04-30T08:14:53.852Z,152.64
2023-04-30T08:15:53.889Z,147.95
2023-04-30T08:16:54.026Z,159.66
2023-04-30T08:17:54.189Z,171.58
2023-04-30T08:18:54.069Z,175.60
2023-04-30T08:19:54.270Z,174.47
2023-04-30T08:20:54.225Z,189.30
2023-04-30T08:21:54.284Z,175.31
2023-04-30T08:22:54.362Z,156.86
2023-04-30T08:23:54.413Z,151.98
2023-04-30T08:24:54.463Z,150.41
2023-04-30T08:25:54.506Z,140.74
2023-04-30T08:26:54.955Z,146.44
2023-04-30T08:27:54.655Z,155.49
2023-04-30T08:28:54.732Z,146.17
2023-04-30T08:29:54.938Z,145.08
2023-04-30T08:30:54.859Z,139.25
2023-04-30T08:31:54.944Z,135.51
2023-04-30T08:32:57.537Z,139.56
2023-04-30T08:33:54.991Z,137.89
2023-04-30T08:34:55.205Z,149.25
2023-04-30T08:35:54.959Z,167.66
2023-04-30T08:36:54.957Z,150.96
2023-04-30T08:37:54.944Z,151.82
2023-04-30T08:38:54.927Z,142.31
2023-04-30T08:39:55.118Z,139.96
2023-04-30T08:40:54.947Z,141.98
2023-04-30T08:41:54.910Z,137.46
2023-04-30T08:42:54.922Z,145.15
2023-04-30T08:43:54.877Z,146.86
2023-04-30T08:44:54.897Z,139.46
2023-04-30T08:45:54.937Z,132.55
2023-04-30T08:46:54.878Z,129.58
2023-04-30T08:47:54.930Z,137.28
2023-04-30T08:48:54.897Z,131.83
2023-04-30T08:49:55.234Z,126.63
2023-04-30T08:50:54.849Z,125.26
2023-04-30T08:51:54.832Z,127.16
2023-04-30T08:52:54.823Z,124.18
2023-04-30T08:53:54.804Z,142.79
2023-04-30T08:54:54.827Z,135.37
2023-04-30T08:55:54.832Z,127.54
2023-04-30T08:56:54.816Z,133.76
2023-04-30T08:57:54.797Z,156.11
2023-04-30T08:58:54.797Z,174.15
2023-04-30T08:59:54.965Z,164.83
2023-04-30T09:00:54.755Z,150.62
2023-04-30T09:01:54.787Z,135.78
2023-04-30T09:02:54.816Z,137.84
2023-04-30T09:03:54.874Z,127.86
2023-04-30T09:04:54.759Z,138.19
2023-04-30T09:05:54.802Z,135.98
2023-04-30T09:06:54.916Z,145.87
2023-04-30T09:08:02.947Z,134.20
2023-04-30T09:08:55.907Z,134.26
2023-04-30T09:09:55.170Z,137.37
2023-04-30T09:10:54.869Z,140.31
2023-04-30T09:11:54.873Z,138.08
2023-04-30T09:12:54.866Z,131.99
2023-04-30T09:13:54.863Z,120.55
2023-04-30T09:14:54.868Z,140.56
2023-04-30T09:15:54.874Z,177.17
2023-04-30T09:16:54.847Z,186.21
2023-04-30T09:17:54.889Z,204.36
2023-04-30T09:18:54.984Z,157.37
2023-04-30T09:19:55.296Z,153.58
2023-04-30T09:20:55.031Z,146.13
2023-04-30T09:21:55.077Z,161.29
2023-04-30T09:22:55.154Z,178.74
2023-04-30T09:23:55.194Z,154.51
2023-04-30T09:24:55.256Z,156.01
2023-04-30T09:25:55.263Z,154.62
2023-04-30T09:26:55.355Z,161.46
2023-04-30T09:27:55.391Z,164.80
2023-04-30T09:28:55.427Z,156.42
2023-04-30T09:29:55.728Z,160.49
2023-04-30T09:30:55.514Z,167.35
2023-04-30T09:31:55.590Z,169.05
2023-04-30T09:32:55.658Z,174.89
2023-04-30T09:33:55.665Z,171.98
2023-04-30T09:34:55.711Z,167.55
2023-04-30T09:35:55.738Z,171.09
2023-04-30T09:36:55.792Z,172.50
2023-04-30T09:37:55.850Z,160.79
2023-04-30T09:38:55.957Z,144.90
2023-04-30T09:39:56.265Z,142.98
2023-04-30T09:40:55.918Z,149.26
2023-04-30T09:41:55.994Z,168.19
2023-04-30T09:42:56.048Z,170.77
2023-04-30T09:43:56.061Z,180.50
2023-04-30T09:44:56.138Z,180.96
2023-04-30T09:45:56.137Z,183.47
2023-04-30T09:46:56.246Z,165.53
2023-04-30T09:48:02.766Z,173.76
2023-04-30T09:48:57.209Z,173.83
2023-04-30T09:49:56.405Z,175.53
2023-04-30T09:50:56.193Z,177.09
2023-04-30T09:51:56.206Z,160.99
2023-04-30T09:52:56.185Z,159.30
2023-04-30T09:53:56.199Z,168.79
2023-04-30T09:54:56.226Z,167.51
2023-04-30T09:55:57.887Z,150.85
2023-04-30T09:56:56.183Z,150.70
2023-04-30T09:57:56.151Z,146.37
2023-04-30T09:58:56.236Z,142.90
2023-04-30T09:59:56.370Z,144.13
2023-04-30T10:00:56.206Z,152.37
2023-04-30T10:01:56.232Z,166.81
2023-04-30T10:02:56.286Z,175.12
2023-04-30T10:03:56.316Z,177.26
2023-04-30T10:04:56.319Z,173.58
2023-04-30T10:05:56.506Z,174.50
2023-04-30T10:06:56.373Z,170.75
2023-04-30T10:07:56.363Z,161.80
2023-04-30T10:08:56.431Z,169.83
2023-04-30T10:09:56.695Z,167.91
2023-04-30T10:10:56.443Z,170.94
2023-04-30T10:11:56.464Z,164.54
2023-04-30T10:12:56.499Z,161.57
2023-04-30T10:13:56.517Z,159.86
2023-04-30T10:14:56.514Z,155.22
2023-04-30T10:15:56.547Z,149.02
2023-04-30T10:16:56.639Z,160.01
2023-04-30T10:17:56.645Z,159.09
2023-04-30T10:18:56.607Z,161.69
2023-04-30T10:19:56.783Z,156.56
2023-04-30T10:20:56.622Z,159.82
2023-04-30T10:21:56.604Z,159.43
2023-04-30T10:22:56.630Z,162.40
2023-04-30T10:23:56.647Z,159.31
2023-04-30T10:24:56.641Z,153.73
2023-04-30T10:25:56.664Z,169.52
2023-04-30T10:26:56.681Z,160.66
2023-04-30T10:27:56.641Z,157.26
2023-04-30T10:28:56.679Z,159.25
2023-04-30T10:29:56.903Z,151.52
2023-04-30T10:30:56.669Z,157.49
2023-04-30T10:31:56.747Z,160.13
2023-04-30T10:32:56.711Z,159.61
2023-04-30T10:33:56.695Z,156.47
2023-04-30T10:34:56.706Z,156.03
2023-04-30T10:35:56.692Z,151.50
2023-04-30T10:36:56.717Z,146.41
2023-04-30T10:37:56.709Z,149.15
2023-04-30T10:38:56.699Z,145.22
2023-04-30T10:39:56.996Z,148.72
2023-04-30T10:40:56.710Z,156.49
2023-04-30T10:41:56.718Z,156.00
2023-04-30T10:42:56.725Z,155.58
2023-04-30T10:43:56.727Z,152.35
2023-04-30T10:44:56.700Z,152.06
2023-04-30T10:45:56.752Z,157.95
2023-04-30T10:46:56.718Z,156.32
2023-04-30T10:47:56.749Z,151.87
2023-04-30T10:48:56.759Z,143.60
2023-04-30T10:49:57.066Z,136.85
2023-04-30T10:50:56.768Z,136.56
2023-04-30T10:51:56.762Z,137.56
2023-04-30T10:52:56.783Z,142.30
2023-04-30T10:53:56.757Z,138.24
2023-04-30T10:54:56.795Z,137.79
2023-04-30T10:55:56.782Z,140.81
2023-04-30T10:56:56.801Z,143.12
2023-04-30T10:57:56.829Z,151.50
2023-04-30T10:58:56.784Z,158.85
2023-04-30T10:59:56.984Z,156.45
2023-04-30T11:00:56.827Z,158.56
2023-04-30T11:01:56.955Z,151.61
2023-04-30T11:02:56.831Z,145.98
2023-04-30T11:03:56.822Z,152.16
2023-04-30T11:04:56.837Z,144.91
2023-04-30T11:05:56.915Z,145.41
2023-04-30T11:06:56.845Z,142.70
2023-04-30T11:07:56.865Z,138.99
2023-04-30T11:08:56.842Z,122.75
2023-04-30T11:09:57.045Z,126.46
2023-04-30T11:10:56.889Z,125.42
2023-04-30T11:11:56.881Z,124.71
2023-04-30T11:12:56.934Z,136.73
2023-04-30T11:13:56.934Z,128.14
2023-04-30T11:14:56.921Z,124.43
2023-04-30T11:15:57.010Z,114.70
2023-04-30T11:16:56.993Z,105.31
2023-04-30T11:17:57.014Z,119.36
2023-04-30T11:18:57.007Z,129.21
2023-04-30T11:19:57.205Z,131.98
2023-04-30T11:20:57.055Z,130.33
2023-04-30T11:21:57.074Z,134.86
2023-04-30T11:22:57.108Z,124.97
2023-04-30T11:23:57.091Z,129.68
2023-04-30T11:24:57.145Z,130.45
2023-04-30T11:25:57.283Z,127.72
2023-04-30T11:26:57.179Z,123.46
2023-04-30T11:27:57.240Z,123.31
2023-04-30T11:28:57.321Z,124.88
2023-04-30T11:29:57.613Z,127.40
2023-04-30T11:30:57.503Z,136.02
2023-04-30T11:31:57.458Z,139.20
2023-04-30T11:32:57.538Z,135.97
2023-04-30T11:33:57.543Z,126.68
2023-04-30T11:34:57.629Z,117.55
2023-04-30T11:35:57.664Z,106.31
2023-04-30T11:36:57.720Z,105.01
2023-04-30T11:37:57.791Z,112.02
2023-04-30T11:38:57.885Z,115.64
2023-04-30T11:39:57.891Z,115.82
2023-04-30T11:40:57.980Z,114.99
2023-04-30T11:41:58.042Z,112.20
2023-04-30T11:42:58.086Z,120.51
2023-04-30T11:43:58.145Z,126.69
2023-04-30T11:44:58.207Z,123.61
2023-04-30T11:45:58.370Z,113.77
2023-04-30T11:46:58.461Z,111.07
2023-04-30T11:47:58.422Z,107.23
2023-04-30T11:48:58.450Z,96.00
2023-04-30T11:49:58.529Z,97.89
2023-04-30T11:50:58.570Z,114.00
2023-04-30T11:51:58.644Z,131.22
2023-04-30T11:52:58.687Z,124.60
2023-04-30T11:53:58.744Z,119.37
2023-04-30T11:54:58.785Z,120.97
2023-04-30T11:55:58.809Z,103.92
2023-04-30T11:56:58.869Z,111.70
2023-04-30T11:57:58.920Z,108.78
2023-04-30T11:58:58.981Z,112.48
2023-04-30T11:59:59.047Z,105.80
2023-04-30T12:00:59.087Z,99.83
2023-04-30T12:01:59.152Z,97.81
2023-04-30T12:02:59.320Z,100.51
2023-04-30T12:03:59.354Z,93.52
2023-04-30T12:04:59.245Z,80.75
2023-04-30T12:05:59.311Z,78.37
2023-04-30T12:06:59.321Z,82.42
2023-04-30T12:07:59.409Z,84.45
2023-04-30T12:08:59.373Z,77.85
2023-04-30T12:09:59.434Z,65.03
2023-04-30T12:10:59.442Z,57.04
2023-04-30T12:11:59.474Z,60.67
2023-04-30T12:12:59.522Z,58.62
2023-04-30T12:13:59.513Z,67.19
2023-04-30T12:14:59.551Z,62.75
2023-04-30T12:15:59.603Z,64.77
2023-04-30T12:16:59.737Z,53.91
2023-04-30T12:17:59.784Z,49.74
2023-04-30T12:18:59.715Z,52.80
2023-04-30T12:19:59.753Z,44.71
2023-04-30T12:20:59.778Z,38.17
2023-04-30T12:21:59.821Z,35.52
2023-04-30T12:22:59.813Z,42.51
2023-04-30T12:24:01.468Z,38.80
2023-04-30T12:24:59.838Z,42.47
2023-04-30T12:25:59.869Z,48.74
2023-04-30T12:26:59.817Z,47.94
2023-04-30T12:27:59.865Z,39.52
2023-04-30T12:28:59.840Z,35.75
2023-04-30T12:29:59.816Z,45.29
2023-04-30T12:30:59.778Z,44.74